Time;durP1;ratioP1;P1;durP2;ratioP2;P2;SDS_P1;SDS_P2;PMS_P1;PMS_P2;Temp;Humidity;BMP_temperature;BMP_pressure;BME280_temperature;BME280_humidity;BME280_pressure;Samples;Min_cycle;Max_cycle;Signal;HPM_P1;HPM_P2
2023/07/30 00:02:21;;;;;;;7.55;3.42;;;16.40;99.90;;;-144.05;93.85;56980.53;6156512;23;20013;-84
2023/07/30 00:04:48;;;;;;;4.97;3.25;;;16.30;99.90;;;-144.05;94.46;56976.28;6159565;23;20396;-82
2023/07/30 00:07:14;;;;;;;8.38;4.10;;;16.30;99.90;;;-144.05;94.09;56986.91;6161908;23;20005;-84
2023/07/30 00:09:40;;;;;;;5.75;3.40;;;16.30;99.90;;;-144.05;93.93;56999.63;6159654;23;20013;-85
2023/07/30 00:12:08;;;;;;;4.55;3.28;;;16.30;99.90;;;-144.05;93.85;56984.78;6154960;23;20321;-84
2023/07/30 00:14:35;;;;;;;8.60;3.70;;;16.30;99.90;;;-144.05;94.05;56955.03;6128833;23;20009;-84
2023/07/30 00:17:01;;;;;;;9.95;3.63;;;16.20;99.90;;;-144.05;94.13;56974.16;6154881;23;20466;-85
2023/07/30 00:19:27;;;;;;;5.05;3.20;;;16.20;99.90;;;-144.05;94.29;57018.75;6128183;23;20012;-84
2023/07/30 00:21:53;;;;;;;8.20;3.35;;;16.10;99.90;;;-144.05;94.13;56982.66;6155046;23;20480;-84
2023/07/30 00:24:18;;;;;;;5.72;3.13;;;16.10;99.90;;;-144.05;93.82;56999.63;6155460;23;20009;-86
2023/07/30 00:26:44;;;;;;;8.30;3.45;;;16.10;99.90;;;-144.05;94.17;57006.00;6128389;23;20056;-85
2023/07/30 00:29:10;;;;;;;7.57;3.35;;;16.00;99.90;;;-144.05;94.00;56967.78;6152866;23;20060;-84
2023/07/30 00:31:36;;;;;;;8.13;3.10;;;15.90;99.90;;;-144.05;93.68;56995.38;6152824;23;20450;-84
2023/07/30 00:34:02;;;;;;;5.75;3.22;;;15.90;99.90;;;-144.05;93.12;56980.53;6154721;23;20033;-83
2023/07/30 00:36:28;;;;;;;9.48;3.47;;;15.80;99.90;;;-144.05;93.02;56978.41;6153363;23;20470;-84
2023/07/30 00:38:54;;;;;;;5.93;3.17;;;15.80;99.90;;;-144.05;92.36;56989.00;6152785;23;20006;-84
2023/07/30 00:41:20;;;;;;;5.53;3.00;;;15.80;99.90;;;-144.05;92.03;56989.00;6128021;23;20009;-83
2023/07/30 00:43:46;;;;;;;5.63;3.33;;;15.70;99.90;;;-144.05;92.27;56989.00;6128141;23;20005;-84
2023/07/30 00:46:13;;;;;;;5.72;2.72;;;15.70;99.90;;;-144.05;92.05;56986.91;6133443;23;20095;-80
2023/07/30 00:48:39;;;;;;;6.35;2.90;;;15.60;99.90;;;-144.05;92.06;56969.91;6170824;23;20009;-88
2023/07/30 00:51:09;;;;;;;8.55;2.90;;;15.60;99.90;;;-144.05;91.74;56989.00;6164603;23;20016;-86
2023/07/30 00:53:36;;;;;;;4.30;2.70;;;15.50;99.90;;;-144.05;91.52;56989.00;6160296;23;20013;-86
2023/07/30 00:56:03;;;;;;;9.00;3.30;;;15.60;99.90;;;-144.05;91.45;56997.50;6154956;23;20005;-84
2023/07/30 00:58:30;;;;;;;8.25;3.28;;;15.50;99.90;;;-144.05;91.49;56995.38;6156476;23;20453;-85
2023/07/30 01:00:56;;;;;;;10.35;3.03;;;15.40;99.90;;;-144.05;91.18;56980.53;6155639;23;20025;-84
2023/07/30 01:03:23;;;;;;;11.07;3.25;;;15.30;99.90;;;-144.05;90.64;56993.25;6130322;23;20124;-82
2023/07/30 01:05:49;;;;;;;7.50;2.80;;;15.30;99.90;;;-144.05;90.64;56984.78;6170232;23;20008;-77
2023/07/30 01:08:15;;;;;;;5.68;2.88;;;15.30;99.90;;;-144.05;90.19;56963.53;6156445;23;20069;-79
2023/07/30 01:10:42;;;;;;;7.97;2.90;;;15.20;99.90;;;-144.05;89.95;56969.91;6181886;23;20013;-77
2023/07/30 01:13:11;;;;;;;6.78;3.25;;;15.20;99.90;;;-144.05;89.42;56999.63;6168956;23;20028;-83
2023/07/30 01:15:38;;;;;;;6.32;2.85;;;15.10;99.90;;;-144.05;89.41;56978.41;6154208;23;20064;-84
2023/07/30 01:18:04;;;;;;;8.27;3.33;;;15.10;99.90;;;-144.05;89.17;56997.50;6153748;23;20566;-85
2023/07/30 01:20:33;;;;;;;6.72;2.97;;;15.00;99.90;;;-144.05;89.24;56984.78;6153249;23;20056;-85
2023/07/30 01:22:59;;;;;;;9.70;3.58;;;15.00;99.90;;;-144.05;89.21;56980.53;6153255;23;20010;-83
2023/07/30 01:25:33;;;;;;;8.70;3.05;;;14.90;99.90;;;-144.05;89.32;56976.28;6128633;23;20013;-83
2023/07/30 01:28:04;;;;;;;6.53;2.55;;;14.80;99.90;;;-144.05;89.22;56984.78;6154106;23;20048;-81
2023/07/30 01:30:42;;;;;;;6.60;3.25;;;14.80;99.90;;;-144.05;89.88;56978.41;6152523;23;20009;-84
2023/07/30 01:33:11;;;;;;;9.15;3.80;;;14.70;99.90;;;-144.05;90.14;56980.53;6153119;23;20017;-83
2023/07/30 01:35:41;;;;;;;10.05;2.97;;;14.70;99.90;;;-144.05;91.66;56976.28;6153911;23;20013;-84
2023/07/30 01:38:10;;;;;;;13.52;3.38;;;14.70;99.90;;;-144.05;92.36;56980.53;6155127;23;20005;-84
2023/07/30 01:40:36;;;;;;;8.82;3.13;;;14.70;99.90;;;-144.05;92.34;56965.66;6155099;23;20006;-83
2023/07/30 01:43:02;;;;;;;8.05;3.20;;;14.70;99.90;;;-144.05;92.40;56976.28;6154495;23;20061;-81
2023/07/30 01:45:28;;;;;;;10.57;3.88;;;14.70;99.90;;;-144.05;93.05;56972.03;6154016;23;20046;-83
2023/07/30 01:47:53;;;;;;;8.35;3.38;;;14.70;99.90;;;-144.05;93.16;56984.78;6159635;23;20040;-83
2023/07/30 01:50:19;;;;;;;9.98;3.33;;;14.70;99.90;;;-144.05;93.97;56978.41;6154947;23;20037;-85
2023/07/30 01:52:45;;;;;;;9.95;4.05;;;14.70;99.90;;;-144.05;93.97;56961.41;6155875;23;20325;-84
2023/07/30 01:55:11;;;;;;;9.25;3.22;;;14.70;99.90;;;-144.05;94.37;56974.16;6154269;23;20064;-84
2023/07/30 01:57:37;;;;;;;7.65;3.78;;;14.60;99.90;;;-144.05;94.42;56989.00;6155604;23;20009;-84
2023/07/30 02:00:03;;;;;;;9.32;3.90;;;14.70;99.90;;;-144.05;94.03;56980.53;6153683;23;20005;-83
2023/07/30 02:02:29;;;;;;;10.00;3.58;;;14.60;99.90;;;-144.05;93.57;56972.03;6155878;23;20010;-84
2023/07/30 02:04:55;;;;;;;11.13;3.50;;;14.60;99.90;;;-144.05;93.50;56974.16;6129323;23;20065;-84
2023/07/30 02:07:21;;;;;;;6.38;3.47;;;14.60;99.90;;;-144.05;93.35;56967.78;6155451;23;20051;-82
2023/07/30 02:09:47;;;;;;;8.77;3.75;;;14.50;99.90;;;-144.05;92.96;56952.91;6128831;23;20144;-84
2023/07/30 02:12:12;;;;;;;8.05;3.63;;;14.50;99.90;;;-144.05;92.79;56974.16;6148577;23;20051;-84
2023/07/30 02:14:38;;;;;;;6.45;3.47;;;14.50;99.90;;;-144.05;93.04;56976.28;6124171;23;20404;-83
2023/07/30 02:17:05;;;;;;;6.15;3.22;;;14.50;99.90;;;-144.05;93.16;56959.28;6124161;23;20460;-84
2023/07/30 02:19:30;;;;;;;7.88;3.58;;;14.50;99.90;;;-144.05;92.44;56997.50;6124002;23;20332;-82
2023/07/30 02:21:56;;;;;;;7.70;3.25;;;14.40;99.90;;;-144.05;92.52;56972.03;6125508;23;20013;-84
2023/07/30 02:24:22;;;;;;;5.70;2.83;;;14.40;99.90;;;-144.05;92.72;56989.00;6125587;23;20013;-84
2023/07/30 02:26:48;;;;;;;11.30;3.60;;;14.40;99.90;;;-144.05;92.29;56969.91;6148514;23;20006;-84
2023/07/30 02:29:14;;;;;;;5.95;3.50;;;14.40;99.90;;;-144.05;92.42;56989.00;6123864;23;20014;-84
2023/07/30 02:31:40;;;;;;;12.40;3.83;;;14.30;99.90;;;-144.05;92.09;56965.66;6123876;23;20013;-82
2023/07/30 02:34:07;;;;;;;6.78;3.17;;;14.30;99.90;;;-144.05;91.79;56984.78;6123762;23;20010;-84
2023/07/30 02:36:33;;;;;;;7.28;3.08;;;14.30;99.90;;;-144.05;91.72;56991.13;6123876;23;20324;-83
2023/07/30 02:38:59;;;;;;;7.78;3.17;;;14.30;99.90;;;-144.05;91.90;56991.13;6148206;23;20347;-83
2023/07/30 02:41:25;;;;;;;8.50;3.55;;;14.20;99.90;;;-144.05;92.14;57018.75;6125162;23;20089;-82
2023/07/30 02:43:51;;;;;;;7.15;3.42;;;14.20;99.90;;;-144.05;92.04;56982.66;6125353;23;20006;-84
2023/07/30 02:46:17;;;;;;;8.20;3.80;;;14.20;99.90;;;-144.05;91.98;56967.78;6125125;23;20009;-84
2023/07/30 02:48:42;;;;;;;9.63;3.50;;;14.20;99.90;;;-144.05;92.32;57001.75;6124661;23;20006;-84
2023/07/30 02:51:08;;;;;;;10.82;3.85;;;14.20;99.90;;;-144.05;92.52;56967.78;6125268;23;20010;-84
2023/07/30 02:53:34;;;;;;;12.88;4.13;;;14.20;99.90;;;-144.05;92.65;56984.78;6123503;23;20014;-85
2023/07/30 02:56:00;;;;;;;7.07;3.38;;;14.30;99.90;;;-144.05;93.40;56984.78;6125276;23;20404;-85
2023/07/30 02:58:26;;;;;;;10.90;3.88;;;14.20;99.90;;;-144.05;93.43;56967.78;6125306;23;20012;-84
2023/07/30 03:00:52;;;;;;;10.15;3.75;;;14.30;99.90;;;-144.05;93.20;56995.38;6125359;23;20033;-82
2023/07/30 03:03:17;;;;;;;9.63;3.67;;;14.30;99.90;;;-144.05;92.51;56989.00;6125219;23;20005;-84
2023/07/30 03:05:43;;;;;;;7.45;3.40;;;14.30;99.90;;;-144.05;92.59;56980.53;6123426;23;20037;-83
2023/07/30 03:08:09;;;;;;;7.68;3.22;;;14.30;99.90;;;-144.05;92.21;56969.91;6123384;23;20013;-87
2023/07/30 03:10:37;;;;;;;9.70;4.28;;;14.30;99.90;;;-144.05;92.13;56969.91;6123221;23;20010;-85
2023/07/30 03:13:03;;;;;;;7.45;3.28;;;14.30;99.90;;;-144.05;91.66;56999.63;6153549;23;20028;-85
2023/07/30 03:15:28;;;;;;;7.93;3.47;;;14.30;99.90;;;-144.05;91.26;56961.41;6159100;23;20002;-85
2023/07/30 03:17:54;;;;;;;8.48;3.20;;;14.30;99.90;;;-144.05;91.24;56967.78;6155954;23;20100;-81
2023/07/30 03:20:20;;;;;;;7.28;3.05;;;14.30;99.90;;;-144.05;90.93;56984.78;6154905;23;20436;-81
2023/07/30 03:22:46;;;;;;;6.88;3.38;;;14.30;99.90;;;-144.05;90.83;56974.16;6153651;23;20363;-83
2023/07/30 03:25:12;;;;;;;8.55;3.15;;;14.30;99.90;;;-144.05;91.21;56974.16;6129348;23;20016;-85
2023/07/30 03:27:38;;;;;;;14.35;3.85;;;14.20;99.90;;;-144.05;90.95;56999.63;6154979;23;20010;-84
2023/07/30 03:30:05;;;;;;;7.95;3.25;;;14.30;99.90;;;-144.05;91.07;56982.66;6154637;23;20343;-84
2023/07/30 03:32:30;;;;;;;6.90;3.45;;;14.20;99.90;;;-144.05;90.98;56982.66;6128200;23;20140;-83
2023/07/30 03:34:56;;;;;;;10.48;3.50;;;14.20;99.90;;;-144.05;91.29;57001.75;6153093;23;20443;-84
2023/07/30 03:37:22;;;;;;;8.75;3.47;;;14.20;99.90;;;-144.05;91.35;56989.00;6129460;23;20010;-83
2023/07/30 03:39:48;;;;;;;5.78;3.47;;;14.10;99.90;;;-144.05;92.34;56959.28;6156073;23;20049;-85
2023/07/30 03:42:14;;;;;;;11.88;4.22;;;14.10;99.90;;;-144.05;92.64;56993.25;6156268;23;20009;-84
2023/07/30 03:44:40;;;;;;;8.93;3.63;;;14.10;99.90;;;-144.05;93.02;56984.78;6154696;23;20092;-84
2023/07/30 03:47:06;;;;;;;12.48;3.92;;;14.10;99.90;;;-144.05;93.29;56986.91;6154686;23;20012;-84
2023/07/30 03:49:31;;;;;;;11.63;3.80;;;14.10;99.90;;;-144.05;92.76;56963.53;6161405;23;20507;-84
2023/07/30 03:51:57;;;;;;;9.40;3.90;;;14.10;99.90;;;-144.05;92.96;56984.78;6134263;23;20036;-86
2023/07/30 03:54:23;;;;;;;10.55;4.10;;;14.10;99.90;;;-144.05;92.84;56974.16;6160197;23;20033;-85
2023/07/30 03:56:49;;;;;;;11.50;3.60;;;14.10;99.90;;;-144.05;92.41;57001.75;6159791;23;20052;-83
2023/07/30 03:59:15;;;;;;;9.50;3.53;;;14.10;99.90;;;-144.05;91.88;56976.28;6157357;23;20028;-86
2023/07/30 04:01:41;;;;;;;10.82;3.80;;;14.20;99.90;;;-144.05;90.80;56976.28;6158070;23;20660;-87
2023/07/30 04:04:07;;;;;;;10.50;3.67;;;14.20;99.90;;;-144.05;90.90;56978.41;6155443;23;20005;-84
2023/07/30 04:06:32;;;;;;;9.73;3.90;;;14.20;99.90;;;-144.05;90.32;56976.28;6155802;23;20001;-86
2023/07/30 04:08:58;;;;;;;8.18;3.55;;;14.20;99.90;;;-144.05;90.02;56974.16;6154132;23;20013;-83
2023/07/30 04:11:24;;;;;;;6.95;3.38;;;14.20;99.90;;;-144.05;89.85;56986.91;6124096;23;20065;-83
2023/07/30 04:13:50;;;;;;;10.50;3.38;;;14.20;99.90;;;-144.05;89.65;56993.25;6124599;23;20344;-83
2023/07/30 04:16:16;;;;;;;6.85;3.17;;;14.20;99.90;;;-144.05;89.67;56986.91;6125248;23;20005;-83
2023/07/30 04:18:41;;;;;;;9.07;3.38;;;14.30;99.90;;;-144.05;89.41;56982.66;6125137;23;20009;-84
2023/07/30 04:21:07;;;;;;;7.90;3.15;;;14.30;99.90;;;-144.05;89.32;56986.91;6124921;23;20017;-84
2023/07/30 04:23:33;;;;;;;9.10;2.88;;;14.30;99.90;;;-144.05;88.80;56991.13;6125129;23;20029;-84
2023/07/30 04:25:59;;;;;;;10.18;3.50;;;14.30;99.90;;;-144.05;89.04;56974.16;6124759;23;20025;-85
2023/07/30 04:28:25;;;;;;;9.88;2.90;;;14.40;99.90;;;-144.05;89.04;56991.13;6124484;23;20009;-84
2023/07/30 04:30:50;;;;;;;6.85;3.22;;;14.40;99.90;;;-144.05;88.55;56976.28;6124433;23;20006;-82
2023/07/30 04:33:17;;;;;;;18.30;3.30;;;14.40;99.90;;;-144.05;89.11;56974.16;6124392;23;20009;-82
2023/07/30 04:35:43;;;;;;;8.40;3.35;;;14.40;99.90;;;-144.05;88.71;56972.03;6147425;23;20069;-83
2023/07/30 04:38:09;;;;;;;6.25;3.30;;;14.50;99.90;;;-144.05;89.09;56974.16;6124467;23;20101;-84
2023/07/30 04:40:34;;;;;;;7.03;3.45;;;14.50;99.90;;;-144.05;89.17;56969.91;6147188;23;20360;-83
2023/07/30 04:43:00;;;;;;;9.55;4.00;;;14.60;99.90;;;-144.05;89.03;56993.25;6129294;23;20017;-87
2023/07/30 04:45:26;;;;;;;10.40;2.88;;;14.60;99.90;;;-144.05;88.79;56984.78;6153706;23;20092;-86
2023/07/30 04:47:52;;;;;;;9.63;3.35;;;14.60;99.90;;;-144.05;88.51;56972.03;6127943;23;20015;-84
2023/07/30 04:50:18;;;;;;;12.15;4.30;;;14.60;99.90;;;-144.05;88.53;56991.13;6149248;23;20016;-83
2023/07/30 04:52:43;;;;;;;6.75;2.90;;;14.60;99.90;;;-144.05;88.03;56955.03;6148235;23;20014;-84
2023/07/30 04:55:09;;;;;;;14.43;3.45;;;14.70;99.90;;;-144.05;87.74;56984.78;6125574;23;20369;-83
2023/07/30 04:57:35;;;;;;;7.55;3.30;;;14.70;99.90;;;-144.05;87.62;56965.66;6123866;23;20014;-80
2023/07/30 05:00:01;;;;;;;16.00;3.35;;;14.80;99.90;;;-144.05;87.97;56974.16;6123171;23;20010;-83
2023/07/30 05:02:27;;;;;;;17.30;3.65;;;14.80;99.90;;;-144.05;87.07;56961.41;6124122;23;20057;-84
2023/07/30 05:04:53;;;;;;;7.97;2.97;;;14.90;99.90;;;-144.05;87.41;57001.75;6146714;23;20014;-83
2023/07/30 05:07:19;;;;;;;6.68;3.28;;;15.00;99.90;;;-144.05;86.80;56965.66;6123540;23;20536;-86
2023/07/30 05:09:44;;;;;;;9.52;3.10;;;15.10;99.90;;;-144.05;86.76;56972.03;6146408;23;20463;-84
2023/07/30 05:12:10;;;;;;;11.85;3.90;;;15.20;99.90;;;-144.05;86.08;56969.91;6141747;23;20359;-83
2023/07/30 05:14:36;;;;;;;12.82;3.60;;;15.40;99.90;;;-144.05;85.22;56967.78;6153174;23;20013;-83
2023/07/30 05:17:02;;;;;;;10.93;3.45;;;15.60;99.90;;;-144.05;84.69;56982.66;6153118;23;20010;-82
2023/07/30 05:19:28;;;;;;;13.40;3.80;;;15.80;99.90;;;-144.05;83.23;56980.53;6154284;23;20454;-83
2023/07/30 05:21:55;;;;;;;7.53;2.75;;;15.80;99.90;;;-144.05;83.22;56969.91;6154330;23;20016;-84
2023/07/30 05:24:21;;;;;;;11.73;3.30;;;15.90;99.90;;;-144.05;82.27;56969.91;6154534;23;20005;-84
2023/07/30 05:26:46;;;;;;;9.50;2.65;;;16.00;99.90;;;-144.05;81.62;56961.41;6128294;23;20167;-82
2023/07/30 05:29:12;;;;;;;8.85;2.88;;;16.00;99.90;;;-144.05;81.92;56989.00;6128075;23;20021;-82
2023/07/30 05:31:38;;;;;;;9.27;3.08;;;16.00;99.90;;;-144.05;81.99;56980.53;6154103;23;20009;-83
2023/07/30 05:34:04;;;;;;;9.63;3.50;;;15.90;99.90;;;-144.05;82.36;56978.41;6128673;23;20009;-81
2023/07/30 05:36:30;;;;;;;10.73;3.28;;;15.90;99.90;;;-144.05;82.86;56993.25;6159282;23;20125;-84
2023/07/30 05:38:56;;;;;;;14.77;3.45;;;15.90;99.90;;;-144.05;82.07;56995.38;6154526;23;20019;-82
2023/07/30 05:41:22;;;;;;;14.55;4.57;;;15.80;99.90;;;-144.05;82.40;56952.91;6128539;23;20014;-84
2023/07/30 05:43:48;;;;;;;12.55;3.40;;;15.80;99.90;;;-144.05;82.64;56974.16;6152638;23;20335;-86
2023/07/30 05:46:15;;;;;;;9.30;2.88;;;15.80;99.90;;;-144.05;82.64;56974.16;6128038;23;20006;-87
2023/07/30 05:48:41;;;;;;;10.10;3.00;;;15.80;99.90;;;-144.05;82.41;56965.66;6154668;23;20010;-83
2023/07/30 05:51:07;;;;;;;12.73;5.03;;;15.80;99.90;;;-144.05;82.84;56991.13;6154172;23;20005;-83
2023/07/30 05:53:33;;;;;;;9.60;3.03;;;15.80;99.90;;;-144.05;83.29;56965.66;6128020;23;20025;-81
2023/07/30 05:55:58;;;;;;;11.98;2.85;;;15.80;99.90;;;-144.05;83.68;56980.53;6154332;23;20001;-85
2023/07/30 05:58:24;;;;;;;9.48;2.90;;;15.70;99.90;;;-144.05;83.68;56997.50;6158681;23;20005;-88
2023/07/30 06:00:50;;;;;;;9.75;3.40;;;15.70;99.90;;;-144.05;83.76;56965.66;6162047;23;20547;-84
2023/07/30 06:03:16;;;;;;;15.27;3.20;;;15.70;99.90;;;-144.05;83.11;56982.66;6158491;23;20049;-85
2023/07/30 06:05:43;;;;;;;13.40;3.05;;;15.80;99.90;;;-144.05;82.88;56980.53;6155221;23;20006;-86
2023/07/30 06:08:09;;;;;;;15.30;3.03;;;15.80;99.90;;;-144.05;82.82;56986.91;6157761;23;20438;-88
2023/07/30 06:10:40;;;;;;;12.85;3.33;;;15.80;99.90;;;-144.05;82.52;56984.78;6166017;23;20005;-87
2023/07/30 06:13:06;;;;;;;10.60;2.78;;;15.80;99.90;;;-144.05;83.07;56961.41;6160655;23;20013;-89
2023/07/30 06:15:33;;;;;;;11.48;3.22;;;15.80;99.90;;;-144.05;82.86;56974.16;6156919;23;20009;-85
2023/07/30 06:18:03;;;;;;;9.55;2.92;;;15.80;99.90;;;-144.05;83.15;56982.66;6154176;23;20017;-83
2023/07/30 06:20:30;;;;;;;8.80;3.00;;;15.80;99.90;;;-144.05;83.44;56980.53;6155567;23;20013;-86
2023/07/30 06:22:55;;;;;;;11.00;3.05;;;15.80;99.90;;;-144.05;83.34;57006.00;6155474;23;20076;-83
2023/07/30 06:25:21;;;;;;;9.45;2.97;;;15.80;99.90;;;-144.05;82.72;56969.91;6157375;23;20439;-82
2023/07/30 06:27:47;;;;;;;7.57;3.10;;;15.80;99.90;;;-144.05;83.54;56986.91;6180230;23;20001;-78
2023/07/30 06:30:13;;;;;;;14.95;4.03;;;15.80;99.90;;;-144.05;83.59;56986.91;6180608;23;20008;-77
2023/07/30 06:32:39;;;;;;;11.18;3.17;;;15.80;99.90;;;-144.05;83.78;56982.66;6180737;23;20034;-84
2023/07/30 06:35:06;;;;;;;15.95;3.63;;;15.80;99.90;;;-144.05;84.01;56984.78;6132833;23;20325;-86
2023/07/30 06:37:32;;;;;;;9.75;2.92;;;15.80;99.90;;;-144.05;84.07;56969.91;6156298;23;20021;-84
2023/07/30 06:39:58;;;;;;;10.55;3.05;;;15.80;99.90;;;-144.05;83.79;56991.13;6153538;23;20017;-83
2023/07/30 06:42:24;;;;;;;9.15;2.90;;;15.80;99.90;;;-144.05;83.68;56989.00;6152805;23;20010;-82
2023/07/30 06:44:50;;;;;;;11.30;2.92;;;15.80;99.90;;;-144.05;83.16;56989.00;6155154;23;20029;-86
2023/07/30 06:47:16;;;;;;;17.35;3.78;;;15.80;99.90;;;-144.05;83.33;56974.16;6154087;23;20080;-86
2023/07/30 06:49:41;;;;;;;6.82;2.75;;;15.80;99.90;;;-144.05;82.57;56989.00;6156572;23;20096;-84
2023/07/30 06:52:07;;;;;;;7.38;2.80;;;15.80;99.90;;;-144.05;82.96;56982.66;6168203;23;20006;-87
2023/07/30 06:54:33;;;;;;;12.55;3.13;;;15.80;99.90;;;-144.05;82.49;56976.28;6158809;23;20042;-86
2023/07/30 06:56:59;;;;;;;9.68;2.90;;;15.80;99.90;;;-144.05;82.42;56989.00;6131624;23;20009;-84
2023/07/30 06:59:25;;;;;;;10.52;2.92;;;15.80;99.90;;;-144.05;82.79;56969.91;6156087;23;20040;-84
2023/07/30 07:01:51;;;;;;;13.93;3.58;;;15.80;99.90;;;-144.05;81.94;56972.03;6159051;23;20214;-84
2023/07/30 07:04:16;;;;;;;8.30;2.72;;;15.70;99.90;;;-144.05;82.19;56967.78;6156675;23;20032;-86
2023/07/30 07:06:42;;;;;;;11.60;2.83;;;15.70;99.90;;;-144.05;82.47;56989.00;6156703;23;20135;-85
2023/07/30 07:09:08;;;;;;;13.50;2.75;;;15.70;99.90;;;-144.05;81.94;56989.00;6156416;23;20443;-84
2023/07/30 07:11:34;;;;;;;10.15;2.30;;;15.70;99.90;;;-144.05;82.32;56972.03;6161136;23;20069;-85
2023/07/30 07:14:00;;;;;;;9.77;2.75;;;15.70;99.90;;;-144.05;81.96;56974.16;6157959;23;20006;-85
2023/07/30 07:16:25;;;;;;;11.07;2.53;;;15.70;99.90;;;-144.05;82.82;56991.13;6155710;23;20036;-85
2023/07/30 07:18:51;;;;;;;11.07;3.10;;;15.70;99.90;;;-144.05;82.63;56976.28;6156765;23;20006;-85
2023/07/30 07:21:17;;;;;;;10.30;3.17;;;15.60;99.90;;;-144.05;83.57;57010.25;6158475;23;20076;-83
2023/07/30 07:23:43;;;;;;;11.43;2.97;;;15.60;99.90;;;-144.05;83.21;56963.53;6160392;23;20009;-85
2023/07/30 07:26:09;;;;;;;9.27;2.50;;;15.70;99.90;;;-144.05;84.36;56980.53;6158684;23;20001;-84
2023/07/30 07:28:35;;;;;;;11.20;3.08;;;15.70;99.90;;;-144.05;83.50;56957.16;6155432;23;20037;-84
2023/07/30 07:31:01;;;;;;;13.55;3.50;;;15.70;99.90;;;-144.05;83.96;56991.13;6130865;23;20072;-85
2023/07/30 07:33:27;;;;;;;11.32;3.50;;;15.70;99.90;;;-144.05;83.51;56976.28;6157408;23;20016;-86
2023/07/30 07:36:07;;;;;;;9.07;2.95;;;15.60;99.90;;;-144.05;83.49;56984.78;6158264;23;20025;-82
2023/07/30 07:38:34;;;;;;;11.98;3.17;;;15.60;99.90;;;-144.05;82.67;56993.25;6160685;23;20120;-84
2023/07/30 07:41:03;;;;;;;12.23;3.72;;;15.70;99.90;;;-144.05;83.77;56986.91;6179125;23;19998;-84
2023/07/30 07:43:29;;;;;;;17.85;3.83;;;15.70;99.90;;;-144.05;84.29;56980.53;6163219;23;20006;-82
2023/07/30 07:45:55;;;;;;;16.63;4.15;;;15.70;99.90;;;-144.05;82.51;56980.53;6155084;23;20079;-86
2023/07/30 07:48:21;;;;;;;11.50;4.30;;;15.70;99.90;;;-144.05;82.81;56972.03;6158556;23;20024;-87
2023/07/30 07:50:47;;;;;;;15.32;4.40;;;15.80;99.90;;;-144.05;83.59;56999.63;6158478;23;20013;-85
2023/07/30 07:53:13;;;;;;;12.07;3.80;;;15.80;99.90;;;-144.05;82.99;56967.78;6157006;23;20009;-84
2023/07/30 07:55:39;;;;;;;11.57;3.80;;;15.90;99.90;;;-144.05;82.56;56984.78;6157468;23;20049;-86
2023/07/30 07:58:04;;;;;;;11.68;3.45;;;15.90;99.90;;;-144.05;82.47;56972.03;6155464;23;20037;-83
2023/07/30 08:00:30;;;;;;;14.18;2.72;;;16.00;99.90;;;-144.05;81.64;56993.25;6165091;23;20024;-82
2023/07/30 08:02:56;;;;;;;11.20;2.97;;;16.00;99.90;;;-144.05;80.91;56989.00;6161330;23;20009;-85
2023/07/30 08:05:24;;;;;;;11.63;2.58;;;16.10;99.90;;;-144.05;82.21;56980.53;6134411;23;20077;-85
2023/07/30 08:07:50;;;;;;;7.15;2.80;;;16.00;99.90;;;-144.05;81.63;56976.28;6155785;23;20009;-85
2023/07/30 08:10:16;;;;;;;12.52;3.53;;;16.10;99.90;;;-144.05;81.71;56967.78;6135786;23;20063;-84
2023/07/30 08:12:42;;;;;;;11.88;3.42;;;16.10;99.90;;;-144.05;81.39;56991.13;6155568;23;20073;-85
2023/07/30 08:15:09;;;;;;;10.43;3.80;;;16.20;99.90;;;-144.05;81.77;56980.53;6132472;23;20009;-84
2023/07/30 08:17:35;;;;;;;15.68;3.80;;;16.20;99.90;;;-144.05;80.92;56991.13;6132090;23;20016;-83
2023/07/30 08:20:00;;;;;;;10.27;3.80;;;16.20;99.90;;;-144.05;81.27;57006.00;6127529;23;20025;-84
2023/07/30 08:22:26;;;;;;;12.50;3.60;;;16.20;99.90;;;-144.05;79.95;56980.53;6129880;23;20005;-86
2023/07/30 08:24:52;;;;;;;10.98;3.90;;;16.20;99.90;;;-144.05;80.25;56967.78;6128636;23;20006;-83
2023/07/30 08:27:18;;;;;;;9.40;3.58;;;16.20;99.90;;;-144.05;80.02;56972.03;6127580;23;20085;-85
2023/07/30 08:29:45;;;;;;;8.77;3.00;;;16.30;99.90;;;-144.05;79.66;56972.03;6126019;23;20029;-82
2023/07/30 08:32:10;;;;;;;9.88;3.88;;;16.40;99.90;;;-144.05;80.19;56986.91;6150866;23;20061;-82
2023/07/30 08:34:36;;;;;;;12.20;3.15;;;16.50;99.90;;;-144.05;79.37;56991.13;6128840;23;20392;-82
2023/07/30 08:37:02;;;;;;;9.93;3.05;;;16.80;99.90;;;-144.05;78.55;56997.50;6125728;23;20462;-84
2023/07/30 08:39:28;;;;;;;14.15;3.03;;;16.90;99.90;;;-144.05;77.33;57001.75;6149041;23;20005;-83
2023/07/30 08:41:54;;;;;;;9.98;2.92;;;17.00;99.90;;;-144.05;76.62;56972.03;6127818;23;20412;-84
2023/07/30 08:44:20;;;;;;;14.27;3.17;;;17.00;99.90;;;-144.05;75.59;56978.41;6129220;23;20002;-82
2023/07/30 08:46:46;;;;;;;9.88;3.65;;;17.00;99.90;;;-144.05;76.04;56993.25;6126250;23;20013;-84
2023/07/30 08:49:12;;;;;;;8.65;3.40;;;17.00;99.90;;;-144.05;76.37;57008.13;6125977;23;20074;-82
2023/07/30 08:51:42;;;;;;;10.93;3.97;;;17.10;99.90;;;-144.05;75.05;57010.25;6126004;23;20006;-84
2023/07/30 08:54:14;;;;;;;15.95;4.18;;;17.20;99.90;;;-144.05;75.65;57001.75;6151596;23;20021;-81
2023/07/30 08:56:41;;;;;;;13.98;3.50;;;17.20;99.90;;;-144.05;75.00;56999.63;6154351;23;20010;-84
2023/07/30 08:59:08;;;;;;;12.85;3.33;;;17.30;99.90;;;-144.05;74.62;56984.78;6158416;23;20016;-83
2023/07/30 09:01:40;;;;;;;10.85;2.75;;;17.40;99.90;;;-144.05;73.79;56993.25;6130024;23;20428;-83
2023/07/30 09:04:08;;;;;;;10.90;3.13;;;17.60;99.90;;;-144.05;72.54;56986.91;6128173;23;20069;-82
2023/07/30 09:06:34;;;;;;;12.48;3.72;;;17.80;99.90;;;-144.05;72.90;57008.13;6150948;23;20150;-82
2023/07/30 09:09:02;;;;;;;6.82;2.40;;;17.90;99.90;;;-144.05;72.89;56955.03;6132664;23;20415;-84
2023/07/30 09:11:28;;;;;;;16.00;2.85;;;18.00;99.90;;;-144.05;71.10;57006.00;6143723;23;20016;-82
2023/07/30 09:13:56;;;;;;;11.23;2.70;;;18.20;99.90;;;-144.05;71.42;56978.41;6190631;23;20009;-82
2023/07/30 09:16:26;;;;;;;9.63;2.90;;;18.30;99.90;;;-144.05;71.53;56991.13;6164184;23;20009;-82
2023/07/30 09:18:55;;;;;;;8.35;2.67;;;18.30;99.90;;;-144.05;70.16;56991.13;6164537;23;20016;-81
2023/07/30 09:21:34;;;;;;;11.25;3.10;;;18.40;99.90;;;-144.05;69.99;57010.25;6191353;23;20096;-81
2023/07/30 09:24:05;;;;;;;7.35;2.88;;;18.50;99.90;;;-144.05;69.86;56993.25;6165115;23;20358;-84
2023/07/30 09:26:47;;;;;;;12.65;3.08;;;18.90;99.90;;;-144.05;68.50;56980.53;6165401;23;20013;-80
2023/07/30 09:29:13;;;;;;;10.93;2.70;;;19.00;99.90;;;-144.05;66.68;56980.53;6165050;23;20012;-79
2023/07/30 09:31:55;;;;;;;12.52;3.40;;;19.00;99.90;;;-144.05;68.85;56995.38;6191644;23;20312;-80
2023/07/30 09:34:24;;;;;;;9.43;2.40;;;18.50;99.90;;;-144.05;69.60;56972.03;6164902;23;20040;-82
2023/07/30 09:36:54;;;;;;;11.20;3.30;;;18.80;99.90;;;-144.05;67.58;56984.78;6164447;23;20327;-82
2023/07/30 09:39:27;;;;;;;9.65;2.83;;;19.10;99.90;;;-144.05;68.87;56997.50;6164231;23;20032;-81
2023/07/30 09:42:00;;;;;;;9.23;2.92;;;18.80;99.90;;;-144.05;69.15;57006.00;6190542;23;20013;-83
2023/07/30 09:44:27;;;;;;;10.32;2.58;;;18.80;99.90;;;-144.05;68.85;56984.78;6165386;23;20009;-83
2023/07/30 09:46:53;;;;;;;10.10;2.75;;;18.60;99.90;;;-144.05;68.85;56991.13;6165718;23;20009;-82
2023/07/30 09:49:19;;;;;;;8.68;2.92;;;18.40;99.90;;;-144.05;70.89;56997.50;6165687;23;20016;-82
2023/07/30 09:51:45;;;;;;;9.15;2.92;;;18.60;99.90;;;-144.05;67.51;56995.38;6191947;23;20005;-82
2023/07/30 09:54:14;;;;;;;11.18;3.08;;;19.20;99.90;;;-144.05;62.87;56993.25;6165275;23;20017;-82
2023/07/30 09:56:42;;;;;;;11.98;3.55;;;19.80;99.90;;;-144.05;62.61;57025.13;6191743;23;20378;-78
2023/07/30 09:59:09;;;;;;;12.63;3.20;;;19.70;99.90;;;-144.05;63.79;57020.88;6191473;23;20008;-83
2023/07/30 10:01:53;;;;;;;11.60;2.55;;;20.10;99.90;;;-144.05;62.42;57012.38;6190891;23;20005;-81